• Join FlightAware (Why Join?)
  • Login
  • US Flag 
10:33AM EDT


 

Airport Tracker/Info


-or-


 

Live Flight TrackerFlight Track Log ✈ UPS353 ✈ 13-May-2013 ✈ MGGT / GUA - KMIA

Flight Track Log - Related Links

Times and Time Zones

All times are in EDT time to prevent confusion due to time zone crossing. See the UPS353 flight status page for this flight to view local times or setup timezone preferences in your user account.

Time Position Orientation Groundspeed Altitude Reporting Facility
EDT Latitude Longitude Course Direction KTS MPH feet Rate Location/Type
04:29AM 23.4208 -83.3203 44° Northeast 458 527 38,900  Level Miami Center
04:30AM 23.5236 -83.2125 44° Northeast 476 548 38,900  Level Miami Center
04:31AM 23.6242 -83.1019 45° Northeast 497 572 38,900  Level Miami Center
04:32AM 23.7231 -82.9867 47° Northeast 507 583 38,900  Level Miami Center
04:33AM 23.8256 -82.8758 45° Northeast 512 589 38,900  Level Miami Center
04:34AM 23.9242 -82.7603 47° Northeast 517 595 38,900  Level Miami Center
04:35AM 24.0244 -82.6469 46° Northeast 517 595 38,900  Level Miami Center
04:36AM 24.1269 -82.5356 45° Northeast 517 595 38,900  Level Miami Center
04:37AM 24.2361 -82.4108 46° Northeast 517 595 38,900  Level Miami Center
04:38AM 24.3294 -82.3078 45° Northeast 517 595 38,900  Level Miami Center
04:39AM 24.4339 -82.1939 45° Northeast 522 601 38,900 -300 Level Miami Center
04:40AM 24.5342 -82.0772 47° Northeast 522 601 38,300 -1,500 Descending Miami Center
04:41AM 24.6319 -81.9647 46° Northeast 517 595 36,000 -2,640 Descending Miami Center
04:42AM 24.7444 -81.8483 43° Northeast 511 588 33,000 -3,000 Descending Miami Center
04:43AM 24.8425 -81.7308 47° Northeast 511 588 29,900 -2,700 Descending Miami Center
04:44AM 24.9250 -81.6333 47° Northeast 499 574 27,600 -2,580 Descending Miami Center
04:45AM 25.0181 -81.5294 45° Northeast 484 557 24,900 -2,700 Descending Miami Center
04:46AM 25.1069 -81.4250 47° Northeast 473 544 22,300 -2,700 Descending Miami Center
04:47AM 25.1956 -81.3250 46° Northeast 461 531 19,600 -2,700 Descending Miami Center
04:48AM 25.2781 -81.2269 47° Northeast 451 519 17,100 -2,640 Descending Miami Center
04:49AM 25.3600 -81.1356 45° Northeast 435 501 14,400 -2,940 Descending Miami Center
04:49AM 25.3903 -81.0953 50° Northeast 418 481 13,300 -2,520 Descending Miami Center
04:50AM 25.4400 -81.0442 43° Northeast 423 487 11,900 -2,460 Descending Miami Center
04:50AM 25.4703 -81.0039 50° Northeast 398 458 10,800 -1,620 Descending Miami Center
04:51AM 25.5133 -80.9569 45° Northeast 399 459 10,300 -720 Descending Miami Center
04:51AM 25.5394 -80.9233 49° Northeast 339 390 10,100 -300 Descending Miami Center
04:52AM 25.5700 -80.8758 54° Northeast 367 422 10,000 -540 Descending Miami Center
04:52AM 25.5917 -80.8422 54° Northeast 290 334 9,600 -1,200 Descending Miami Center
04:53AM 25.6319 -80.8206 26° Northeast 328 377 8,800 -1,560 Descending Miami Center
04:53AM 25.6617 -80.8053 25° Northeast 286 329 8,100 -1,500 Descending Miami Center
04:54AM 25.7019 -80.7836 26° Northeast 283 326 7,300 -1,320 Descending Miami Center
04:54AM 25.7217 -80.7497 57° Northeast 268 308 6,800 -1,020 Descending Miami Center
04:55AM 25.7456 -80.7158 52° Northeast 271 312 6,300 -840 Descending Miami Center
04:55AM 25.7608 -80.6864 60° Northeast 234 269 6,000 -960 Descending Miami Center
04:56AM 25.7825 -80.6547 53° Northeast 252 290 5,400 -1,140 Descending Miami Center
04:56AM 25.7856 -80.6225 84° East 231 266 4,900 -1,080 Descending Miami Center
04:57AM 25.7906 -80.5833 82° East 224 258 4,300 -1,140 Descending Miami Center
04:57AM 25.7872 -80.5511 97° East 230 265 3,800 -1,260 Descending Miami Center
04:58AM 25.7944 -80.5144 78° East 224 258 3,100 -840 Descending Miami Center
04:58AM 25.7911 -80.4842 97° East 189 217 3,000 -540 Descending Miami Center
04:59AM 25.7958 -80.4544 80° East 208 239 2,600 -840 Descending Miami Center
04:59AM 25.7944 -80.4289 93° East 180 207 2,200 -960 Descending Miami Center
05:00AM 25.7936 -80.3781 91° East 140 161 1,300 -840 Descending Miami Center
05:01AM 25.7967 -80.3344 86° East 140 161 600 -720 Descending Miami Center
05:03AM 25.7954 -80.2901 77° East  Level Estimated
05:10AM 25.7954 -80.2901 77° East  Level Estimated